createdAt,value
2023-04-21T00:01:58.838Z,66.61
2023-04-21T00:05:03.152Z,66.83
2023-04-21T00:08:06.572Z,66.55
2023-04-21T00:11:09.723Z,66.88
2023-04-21T00:14:12.717Z,67.97
2023-04-21T00:17:15.485Z,66.77
2023-04-21T00:20:19.968Z,67.71
2023-04-21T00:23:22.992Z,68.00
2023-04-21T00:26:25.834Z,68.17
2023-04-21T00:29:28.672Z,67.83
2023-04-21T00:32:31.461Z,67.98
2023-04-21T00:35:35.873Z,67.76
2023-04-21T00:38:38.781Z,68.21
2023-04-21T00:41:42.422Z,68.15
2023-04-21T00:44:45.743Z,67.60
2023-04-21T00:47:48.481Z,68.32
2023-04-21T00:50:52.777Z,68.09
2023-04-21T00:53:56.843Z,67.99
2023-04-21T00:57:01.611Z,68.07
2023-04-21T01:00:08.934Z,67.47
2023-04-21T01:03:11.872Z,67.30
2023-04-21T01:06:16.208Z,67.37
2023-04-21T01:09:19.409Z,67.42
2023-04-21T01:12:22.421Z,67.38
2023-04-21T01:15:27.457Z,67.29
2023-04-21T01:18:30.259Z,67.50
2023-04-21T01:21:40.599Z,67.59
2023-04-21T01:24:44.630Z,66.75
2023-04-21T01:27:47.594Z,66.60
2023-04-21T01:30:50.679Z,66.90
2023-04-21T01:33:53.406Z,67.11
2023-04-21T01:36:57.654Z,66.76
2023-04-21T01:40:05.009Z,67.00
2023-04-21T01:43:07.956Z,67.33
2023-04-21T01:46:10.939Z,66.84
2023-04-21T01:49:13.749Z,66.97
2023-04-21T01:52:17.920Z,67.12
2023-04-21T01:55:21.548Z,67.24
2023-04-21T01:58:24.308Z,67.28
2023-04-21T02:01:27.160Z,66.95
2023-04-21T02:04:30.161Z,66.96
2023-04-21T02:07:34.504Z,66.63
2023-04-21T02:10:37.474Z,66.16
2023-04-21T02:13:40.188Z,66.32
2023-04-21T02:16:43.288Z,66.44
2023-04-21T02:19:47.740Z,66.19
2023-04-21T02:22:52.087Z,66.23
2023-04-21T02:25:55.001Z,65.63
2023-04-21T02:28:57.772Z,65.51
2023-04-21T02:32:10.437Z,65.77
2023-04-21T02:35:20.932Z,65.12
2023-04-21T02:38:25.224Z,65.88
2023-04-21T02:41:28.067Z,65.64
2023-04-21T02:44:31.085Z,65.52
2023-04-21T02:47:34.075Z,65.46
2023-04-21T02:50:37.014Z,65.17
2023-04-21T02:53:41.450Z,64.97
2023-04-21T02:56:44.335Z,64.51
2023-04-21T02:59:47.073Z,65.20
2023-04-21T03:02:50.135Z,64.83
2023-04-21T03:05:57.972Z,65.16
2023-04-21T03:09:03.426Z,64.80
2023-04-21T03:12:06.389Z,64.70
2023-04-21T03:15:09.338Z,64.09
2023-04-21T03:18:12.421Z,64.28
2023-04-21T03:21:15.776Z,64.42
2023-04-21T03:24:21.537Z,64.50
2023-04-21T03:27:24.355Z,63.98
2023-04-21T03:30:27.299Z,64.23
2023-04-21T03:33:30.134Z,64.18
2023-04-21T03:36:32.866Z,63.51
2023-04-21T03:39:37.270Z,63.79
2023-04-21T03:42:40.020Z,63.88
2023-04-21T03:45:42.760Z,63.32
2023-04-21T03:48:45.641Z,63.37
2023-04-21T03:51:48.502Z,63.09
2023-04-21T03:54:52.772Z,63.75
2023-04-21T03:57:55.736Z,64.08
2023-04-21T04:00:58.453Z,63.68
2023-04-21T04:04:01.525Z,63.99
2023-04-21T04:07:04.910Z,63.58
2023-04-21T04:10:09.423Z,63.90
2023-04-21T04:13:12.949Z,63.49
2023-04-21T04:16:15.920Z,63.19
2023-04-21T04:19:19.082Z,63.74
2023-04-21T04:22:22.045Z,63.19
2023-04-21T04:25:27.154Z,63.36
2023-04-21T04:28:30.859Z,63.06
2023-04-21T04:31:34.681Z,63.25
2023-04-21T04:34:37.862Z,61.83
2023-04-21T04:37:41.139Z,62.64
2023-04-21T04:40:45.540Z,62.35
2023-04-21T04:43:48.549Z,62.11
2023-04-21T04:46:52.644Z,61.70
2023-04-21T04:49:55.776Z,60.90
2023-04-21T04:52:58.525Z,60.03
2023-04-21T04:56:02.828Z,60.15
2023-04-21T04:59:05.786Z,58.96
2023-04-21T05:02:08.983Z,58.39
2023-04-21T05:05:11.959Z,57.77
2023-04-21T05:08:17.134Z,58.06
2023-04-21T05:11:22.027Z,56.66
2023-04-21T05:14:24.897Z,57.10
2023-04-21T05:17:28.672Z,56.10
2023-04-21T05:20:31.836Z,55.40
2023-04-21T05:23:34.613Z,56.08
2023-04-21T05:26:38.840Z,55.97
2023-04-21T05:29:41.693Z,55.62
2023-04-21T05:32:44.449Z,56.01
2023-04-21T05:35:47.312Z,57.02
2023-04-21T05:38:50.054Z,57.21
2023-04-21T05:41:54.256Z,57.35
2023-04-21T05:44:57.150Z,57.17
2023-04-21T05:47:59.885Z,56.96
2023-04-21T05:51:09.754Z,56.75
2023-04-21T05:54:12.492Z,56.70
2023-04-21T05:57:17.985Z,55.43
2023-04-21T06:00:20.915Z,54.86
2023-04-21T06:03:23.977Z,54.94
2023-04-21T06:06:27.498Z,53.77
2023-04-21T06:09:30.233Z,54.15
2023-04-21T06:12:34.462Z,53.19
2023-04-21T06:15:37.422Z,53.53
2023-04-21T06:18:40.180Z,52.80
2023-04-21T06:21:43.016Z,51.94
2023-04-21T06:24:45.734Z,51.60
2023-04-21T06:27:49.970Z,49.46
2023-04-21T06:30:52.846Z,48.93
2023-04-21T06:33:55.566Z,47.96
2023-04-21T06:36:58.379Z,47.04
2023-04-21T06:40:01.276Z,46.32
2023-04-21T06:43:05.896Z,45.32
2023-04-21T06:46:08.774Z,44.86
2023-04-21T06:49:12.008Z,43.98
2023-04-21T06:52:14.972Z,42.83
2023-04-21T06:55:17.878Z,43.45
2023-04-21T06:58:22.116Z,42.29
2023-04-21T07:01:25.245Z,41.50
2023-04-21T07:04:30.288Z,41.47
2023-04-21T07:07:33.183Z,40.31
2023-04-21T07:10:35.914Z,40.58
2023-04-21T07:13:40.220Z,40.95
2023-04-21T07:16:43.122Z,39.58
2023-04-21T07:19:46.294Z,39.48
2023-04-21T07:22:49.216Z,38.99
2023-04-21T07:25:51.940Z,38.57
2023-04-21T07:28:58.656Z,37.30
2023-04-21T07:32:02.038Z,36.91
2023-04-21T07:35:05.486Z,35.96
2023-04-21T07:38:08.408Z,35.39
2023-04-21T07:41:11.888Z,36.92
2023-04-21T07:44:16.130Z,35.40
2023-04-21T07:47:18.939Z,35.42
2023-04-21T07:50:21.722Z,35.67
2023-04-21T07:53:24.656Z,34.78
2023-04-21T07:56:27.378Z,34.11
2023-04-21T07:59:31.743Z,34.77
2023-04-21T08:02:34.758Z,34.01
2023-04-21T08:05:40.977Z,34.26
2023-04-21T08:08:44.497Z,32.93
2023-04-21T08:11:47.241Z,32.94
2023-04-21T08:14:51.568Z,32.80
2023-04-21T08:17:55.095Z,33.32
2023-04-21T08:20:58.370Z,31.70
2023-04-21T08:24:01.589Z,32.25
2023-04-21T08:27:04.469Z,31.29
2023-04-21T08:30:10.283Z,31.67
2023-04-21T08:33:14.047Z,31.31
2023-04-21T08:36:26.390Z,30.69
2023-04-21T08:39:32.496Z,30.60
2023-04-21T08:42:36.870Z,30.99
2023-04-21T08:45:42.727Z,31.04
2023-04-21T08:48:47.946Z,30.12
2023-04-21T08:51:51.313Z,29.67
2023-04-21T08:54:55.636Z,29.08
2023-04-21T08:57:58.513Z,29.71
2023-04-21T09:01:02.647Z,28.33
2023-04-21T09:04:18.951Z,28.35
2023-04-21T09:07:33.498Z,29.81
2023-04-21T09:10:44.049Z,29.27
2023-04-21T09:13:46.960Z,28.64
2023-04-21T09:17:01.044Z,28.73
2023-04-21T09:20:18.028Z,28.18
2023-04-21T09:23:22.262Z,28.30
2023-04-21T09:26:25.241Z,28.23
2023-04-21T09:29:29.281Z,28.22
2023-04-21T09:32:37.515Z,28.27
2023-04-21T09:35:40.625Z,27.67
2023-04-21T09:38:43.798Z,27.33
2023-04-21T09:41:48.417Z,27.07
2023-04-21T09:44:56.452Z,27.95
2023-04-21T09:48:20.027Z,27.44
2023-04-21T09:51:46.126Z,27.80
2023-04-21T09:54:51.627Z,27.04
2023-04-21T09:58:00.006Z,26.34
2023-04-21T10:01:04.728Z,26.80
2023-04-21T10:04:09.909Z,26.68
2023-04-21T10:07:13.454Z,25.45
2023-04-21T10:10:22.366Z,26.30
2023-04-21T10:13:25.888Z,25.52
2023-04-21T10:16:28.720Z,26.34
2023-04-21T10:19:36.238Z,24.99
2023-04-21T10:22:39.873Z,24.71
2023-04-21T10:25:42.634Z,25.47
2023-04-21T10:28:55.752Z,25.20
2023-04-21T10:31:58.883Z,24.79
2023-04-21T10:35:04.148Z,24.29
2023-04-21T10:38:08.293Z,24.42
2023-04-21T10:41:27.069Z,24.47
2023-04-21T10:44:30.854Z,23.90
2023-04-21T10:47:38.069Z,23.79
2023-04-21T10:50:42.417Z,23.86
2023-04-21T10:53:45.925Z,24.15
2023-04-21T10:56:50.065Z,24.43
2023-04-21T10:59:52.928Z,23.75
2023-04-21T11:02:58.041Z,23.97
2023-04-21T11:06:15.636Z,23.62
2023-04-21T11:09:18.555Z,23.64
2023-04-21T11:12:21.297Z,23.32
2023-04-21T11:15:25.467Z,23.95
2023-04-21T11:18:38.920Z,23.48
2023-04-21T11:21:43.377Z,23.47
2023-04-21T11:24:46.930Z,24.21
2023-04-21T11:27:56.735Z,24.42
2023-04-21T11:31:00.283Z,23.63
2023-04-21T11:34:05.258Z,24.03
2023-04-21T11:37:10.071Z,23.55
2023-04-21T11:40:13.529Z,24.29
2023-04-21T11:43:16.651Z,24.16
2023-04-21T11:46:23.723Z,24.23
2023-04-21T11:49:29.351Z,24.07
2023-04-21T11:52:37.556Z,23.93
2023-04-21T11:55:43.786Z,24.49
2023-04-21T11:58:46.956Z,24.58
2023-04-21T12:01:51.193Z,25.09
2023-04-21T12:05:02.124Z,24.54
2023-04-21T12:08:07.623Z,24.78
2023-04-21T12:11:11.492Z,24.28
2023-04-21T12:14:16.193Z,24.30
2023-04-21T12:17:19.374Z,25.08
2023-04-21T12:20:23.802Z,25.46
2023-04-21T12:23:30.539Z,25.32
2023-04-21T12:26:33.392Z,24.71
2023-04-21T12:29:37.504Z,24.91
2023-04-21T12:32:40.455Z,24.99
2023-04-21T12:35:43.282Z,25.67
2023-04-21T12:38:47.537Z,25.71
2023-04-21T12:41:50.399Z,25.70
2023-04-21T12:44:53.189Z,26.61
2023-04-21T12:47:56.255Z,26.83
2023-04-21T12:50:59.045Z,25.34
2023-04-21T12:54:03.588Z,26.06
2023-04-21T12:57:07.946Z,26.16
2023-04-21T13:00:12.980Z,26.50
2023-04-21T13:03:16.098Z,26.47
2023-04-21T13:06:19.051Z,26.01
2023-04-21T13:09:23.327Z,26.30
2023-04-21T13:12:26.172Z,26.80
2023-04-21T13:15:28.849Z,26.97
2023-04-21T13:18:31.734Z,26.27
2023-04-21T13:21:34.504Z,26.39
2023-04-21T13:24:38.785Z,25.48
2023-04-21T13:27:42.097Z,26.34
2023-04-21T13:30:45.096Z,25.83
2023-04-21T13:33:48.015Z,25.50
2023-04-21T13:36:50.958Z,25.75
2023-04-21T13:39:55.217Z,26.17
2023-04-21T13:42:58.827Z,25.71
2023-04-21T13:46:01.752Z,24.88
2023-04-21T13:49:04.780Z,25.29
2023-04-21T13:52:07.476Z,25.39
2023-04-21T13:55:12.970Z,24.92
2023-04-21T13:58:16.907Z,25.42
2023-04-21T14:01:21.585Z,25.89
2023-04-21T14:04:25.203Z,25.97
2023-04-21T14:07:28.052Z,26.31
2023-04-21T14:10:32.399Z,26.26
2023-04-21T14:13:44.597Z,26.55
2023-04-21T14:16:50.759Z,25.70
2023-04-21T14:19:55.220Z,26.10
2023-04-21T14:22:58.184Z,26.69
2023-04-21T14:26:03.811Z,26.47
2023-04-21T14:29:06.723Z,26.77
2023-04-21T14:32:09.477Z,25.89
2023-04-21T14:35:12.708Z,26.23
2023-04-21T14:38:15.469Z,26.67
2023-04-21T14:41:19.697Z,26.68
2023-04-21T14:44:22.564Z,26.63
2023-04-21T14:47:26.002Z,27.53
2023-04-21T14:50:28.973Z,27.04
2023-04-21T14:53:31.719Z,26.58
2023-04-21T14:56:36.242Z,26.72
2023-04-21T14:59:39.398Z,27.19
2023-04-21T15:02:42.469Z,27.30
2023-04-21T15:05:45.490Z,27.67
2023-04-21T15:08:48.408Z,27.38
2023-04-21T15:11:52.645Z,27.74
2023-04-21T15:14:55.398Z,27.59
2023-04-21T15:17:58.333Z,27.41
2023-04-21T15:21:01.830Z,27.69
2023-04-21T15:24:04.821Z,27.95
2023-04-21T15:27:09.083Z,28.00
2023-04-21T15:30:12.883Z,28.31
2023-04-21T15:33:17.144Z,27.34
2023-04-21T15:36:19.942Z,27.80
2023-04-21T15:39:22.705Z,27.35
2023-04-21T15:42:27.002Z,28.03
2023-04-21T15:45:29.677Z,28.43
2023-04-21T15:48:32.656Z,27.90
2023-04-21T15:51:36.155Z,28.07
2023-04-21T15:54:39.457Z,27.79
2023-04-21T15:57:43.927Z,28.00
2023-04-21T16:00:46.913Z,28.40
2023-04-21T16:03:50.024Z,29.09
2023-04-21T16:06:52.989Z,28.77
2023-04-21T16:09:55.804Z,28.76
2023-04-21T16:13:00.072Z,28.19
2023-04-21T16:16:02.994Z,28.09
2023-04-21T16:19:05.905Z,28.45
2023-04-21T16:22:09.624Z,28.42
2023-04-21T16:25:14.156Z,29.09
2023-04-21T16:28:18.620Z,29.38
2023-04-21T16:31:21.540Z,28.59
2023-04-21T16:34:24.549Z,29.23
2023-04-21T16:37:27.401Z,29.04
2023-04-21T16:40:30.326Z,28.93
2023-04-21T16:43:34.569Z,28.95
2023-04-21T16:46:37.306Z,28.89
2023-04-21T16:49:40.219Z,29.17
2023-04-21T16:52:43.048Z,29.59
2023-04-21T16:55:45.835Z,29.58
2023-04-21T16:58:51.237Z,29.19
2023-04-21T17:01:54.056Z,29.47
2023-04-21T17:04:56.885Z,30.12
2023-04-21T17:07:59.732Z,30.44
2023-04-21T17:11:02.474Z,30.36
2023-04-21T17:14:06.770Z,30.96
2023-04-21T17:17:09.573Z,29.83
2023-04-21T17:20:14.936Z,29.92
2023-04-21T17:23:17.762Z,29.84
2023-04-21T17:26:21.005Z,29.95
2023-04-21T17:29:25.240Z,30.65
2023-04-21T17:32:28.766Z,30.74
2023-04-21T17:35:32.968Z,30.57
2023-04-21T17:38:36.399Z,30.65
2023-04-21T17:41:39.139Z,31.22
2023-04-21T17:44:43.378Z,30.84
2023-04-21T17:47:46.225Z,31.38
2023-04-21T17:50:49.126Z,31.67
2023-04-21T17:53:52.718Z,31.92
2023-04-21T17:56:56.153Z,31.75
2023-04-21T18:00:00.748Z,31.83
2023-04-21T18:03:03.512Z,32.03
2023-04-21T18:06:07.100Z,32.45
2023-04-21T18:09:10.709Z,32.65
2023-04-21T18:12:13.531Z,32.53
2023-04-21T18:15:17.834Z,32.67
2023-04-21T18:18:20.966Z,32.50
2023-04-21T18:21:23.914Z,32.68
2023-04-21T18:24:26.717Z,32.77
2023-04-21T18:27:29.566Z,33.09
2023-04-21T18:30:34.227Z,33.43
2023-04-21T18:33:37.040Z,33.69
2023-04-21T18:36:39.915Z,33.75
2023-04-21T18:39:42.685Z,33.43
2023-04-21T18:42:46.672Z,33.51
2023-04-21T18:45:50.876Z,33.69
2023-04-21T18:48:54.196Z,33.74
2023-04-21T18:51:57.038Z,34.16
2023-04-21T18:54:59.760Z,33.99
2023-04-21T18:58:02.868Z,34.27
2023-04-21T19:01:07.450Z,34.32
2023-04-21T19:04:11.020Z,34.33
2023-04-21T19:07:15.740Z,34.18
2023-04-21T19:10:19.164Z,34.48
2023-04-21T19:13:21.934Z,34.21
2023-04-21T19:16:26.208Z,34.57
2023-04-21T19:19:28.908Z,34.96
2023-04-21T19:22:33.596Z,34.76
2023-04-21T19:25:37.110Z,34.85
2023-04-21T19:28:40.437Z,35.16
2023-04-21T19:31:44.767Z,34.90
2023-04-21T19:34:47.551Z,34.84
2023-04-21T19:37:50.905Z,35.36
2023-04-21T19:40:56.115Z,34.74
2023-04-21T19:43:58.942Z,34.75
2023-04-21T19:47:03.182Z,35.32
2023-04-21T19:50:07.779Z,35.24
2023-04-21T19:53:14.573Z,35.51
2023-04-21T19:56:17.387Z,35.35
2023-04-21T19:59:20.132Z,35.36
2023-04-21T20:02:24.437Z,35.31
2023-04-21T20:05:27.339Z,35.54
2023-04-21T20:08:30.760Z,35.75
2023-04-21T20:11:33.926Z,35.94
2023-04-21T20:14:36.693Z,35.70
2023-04-21T20:17:41.815Z,35.97
2023-04-21T20:20:44.716Z,36.01
2023-04-21T20:23:47.666Z,36.00
2023-04-21T20:26:50.558Z,36.26
2023-04-21T20:29:53.320Z,36.28
2023-04-21T20:32:57.563Z,36.69
2023-04-21T20:36:06.993Z,36.58
2023-04-21T20:39:09.867Z,36.32
2023-04-21T20:42:14.009Z,37.18
2023-04-21T20:45:18.308Z,36.96
2023-04-21T20:48:23.893Z,37.14
2023-04-21T20:51:26.846Z,36.86
2023-04-21T20:54:30.076Z,37.29
2023-04-21T20:57:33.546Z,37.09
2023-04-21T21:00:36.663Z,37.59
2023-04-21T21:03:41.034Z,37.72
2023-04-21T21:06:44.204Z,37.84
2023-04-21T21:09:47.096Z,37.92
2023-04-21T21:12:50.037Z,38.10
2023-04-21T21:15:53.242Z,38.00
2023-04-21T21:18:57.556Z,38.55
2023-04-21T21:22:00.243Z,38.17
2023-04-21T21:25:03.662Z,38.32
2023-04-21T21:28:06.666Z,38.55
2023-04-21T21:31:09.475Z,38.87
2023-04-21T21:34:13.698Z,38.99
2023-04-21T21:37:16.448Z,39.27
2023-04-21T21:40:19.310Z,39.13
2023-04-21T21:43:22.164Z,39.51
2023-04-21T21:46:25.051Z,39.68
2023-04-21T21:49:29.310Z,40.14
2023-04-21T21:52:32.019Z,40.21
2023-04-21T21:55:34.959Z,40.18
2023-04-21T21:58:37.942Z,40.13
2023-04-21T22:01:40.705Z,40.23
2023-04-21T22:04:45.038Z,41.01
2023-04-21T22:07:47.806Z,41.17
2023-04-21T22:10:50.715Z,40.93
2023-04-21T22:13:53.633Z,41.40
2023-04-21T22:16:57.229Z,41.17
2023-04-21T22:20:01.542Z,41.56
2023-04-21T22:23:05.128Z,42.81
2023-04-21T22:26:09.386Z,42.58
2023-04-21T22:29:12.246Z,42.28
2023-04-21T22:32:15.075Z,42.66
2023-04-21T22:35:19.558Z,43.73
2023-04-21T22:38:22.251Z,43.71
2023-04-21T22:41:25.507Z,44.03
2023-04-21T22:44:28.337Z,44.85
2023-04-21T22:47:31.051Z,44.70
2023-04-21T22:50:35.662Z,45.07
2023-04-21T22:53:38.363Z,45.23
2023-04-21T22:56:41.254Z,45.98
2023-04-21T22:59:44.115Z,45.64
2023-04-21T23:02:46.890Z,45.65
2023-04-21T23:05:51.191Z,46.57
2023-04-21T23:08:53.865Z,46.82
2023-04-21T23:11:56.719Z,47.04
2023-04-21T23:14:59.561Z,47.41
2023-04-21T23:18:02.293Z,48.65
2023-04-21T23:21:06.650Z,48.18
2023-04-21T23:24:09.416Z,48.42
2023-04-21T23:27:12.236Z,48.16
2023-04-21T23:30:15.507Z,48.71
2023-04-21T23:33:18.465Z,49.33
2023-04-21T23:36:22.804Z,49.72
2023-04-21T23:39:25.702Z,50.53
2023-04-21T23:42:28.575Z,49.76
2023-04-21T23:45:31.436Z,49.78
2023-04-21T23:48:34.876Z,49.96
2023-04-21T23:51:39.164Z,48.98
2023-04-21T23:54:41.915Z,49.75
2023-04-21T23:57:46.837Z,49.10
